Time;durP1;ratioP1;P1;durP2;ratioP2;P2;SDS_P1;SDS_P2;PMS_P1;PMS_P2;Temp;Humidity;BMP_temperature;BMP_pressure;BME280_temperature;BME280_humidity;BME280_pressure;Samples;Min_cycle;Max_cycle;Signal;HPM_P1;HPM_P2
2021/04/03 00:00:09;;;;;;;13.13;9.00;;;;;;;12.60;92.89;94495.38;5034569;28;20454;-81
2021/04/03 00:02:35;;;;;;;11.47;8.43;;;;;;;12.61;92.64;94499.66;5034039;28;20478;-82
2021/04/03 00:05:03;;;;;;;14.77;9.63;;;;;;;12.66;91.36;94501.84;4999639;28;20453;-81
2021/04/03 00:07:29;;;;;;;16.67;9.10;;;;;;;12.68;91.75;94490.19;5016072;28;20486;-80
2021/04/03 00:09:56;;;;;;;12.00;9.83;;;;;;;12.57;91.02;94497.50;5015979;28;21409;-80
2021/04/03 00:12:23;;;;;;;8.03;7.23;;;;;;;12.55;91.54;94494.19;5034222;28;20933;-80
2021/04/03 00:14:49;;;;;;;9.10;7.60;;;;;;;12.51;90.44;94480.50;5034472;28;20439;-81
2021/04/03 00:17:19;;;;;;;8.97;6.90;;;;;;;12.52;91.24;94473.44;5034343;28;20899;-81
2021/04/03 00:19:45;;;;;;;7.73;6.93;;;;;;;12.56;90.48;94464.25;5033949;28;20969;-81
2021/04/03 00:22:11;;;;;;;10.17;7.70;;;;;;;12.53;90.29;94465.41;5033993;28;20446;-81
2021/04/03 00:24:38;;;;;;;13.70;8.00;;;;;;;12.53;91.43;94464.56;5034265;28;20461;-81
2021/04/03 00:27:05;;;;;;;9.97;8.43;;;;;;;12.58;91.54;94460.50;5033825;28;20473;-82
2021/04/03 00:29:32;;;;;;;9.67;8.47;;;;;;;12.61;90.98;94462.00;5034018;28;20435;-81
2021/04/03 00:31:59;;;;;;;8.30;7.47;;;;;;;12.56;91.31;94448.47;5034051;28;20443;-82
2021/04/03 00:34:25;;;;;;;12.10;9.07;;;;;;;12.55;90.66;94462.59;5034051;28;20988;-81
2021/04/03 00:36:51;;;;;;;10.70;9.20;;;;;;;12.57;90.80;94453.56;5034019;28;20515;-81
2021/04/03 00:39:18;;;;;;;11.20;8.60;;;;;;;12.59;90.12;94456.88;5033796;28;20453;-81
2021/04/03 00:41:44;;;;;;;12.57;8.90;;;;;;;12.60;90.19;94462.97;5034087;28;20851;-81
2021/04/03 00:44:10;;;;;;;14.30;8.83;;;;;;;12.48;90.90;94469.47;5033377;28;20469;-81
2021/04/03 00:46:37;;;;;;;10.07;9.03;;;;;;;12.44;91.63;94479.47;5034028;28;20435;-81
2021/04/03 00:49:06;;;;;;;17.23;10.97;;;;;;;12.28;92.64;94471.41;5033608;28;20438;-82
2021/04/03 00:51:33;;;;;;;18.10;11.50;;;;;;;12.01;95.25;94469.69;5033740;28;20500;-81
2021/04/03 00:53:59;;;;;;;19.87;12.60;;;;;;;11.70;97.41;94462.09;5033504;28;20429;-81
2021/04/03 00:56:25;;;;;;;15.13;12.60;;;;;;;11.55;98.74;94455.66;5033817;28;20453;-81
2021/04/03 00:58:52;;;;;;;20.07;13.70;;;;;;;11.57;100.00;94456.38;5033439;28;20944;-81
2021/04/03 01:01:19;;;;;;;21.10;13.53;;;;;;;11.71;99.66;94458.50;5033773;28;20447;-81
2021/04/03 01:03:46;;;;;;;20.03;13.37;;;;;;;11.84;99.18;94454.69;5033666;28;20835;-81
2021/04/03 01:06:13;;;;;;;20.80;13.70;;;;;;;11.95;99.27;94459.75;5033347;28;20449;-80
2021/04/03 01:08:39;;;;;;;18.10;13.77;;;;;;;12.01;97.58;94465.25;5033224;28;20489;-81
2021/04/03 01:11:07;;;;;;;16.20;13.10;;;;;;;12.02;97.04;94474.78;5033244;28;20926;-81
2021/04/03 01:13:45;;;;;;;22.60;14.33;;;;;;;11.94;97.24;94466.00;5033659;28;20440;-81
2021/04/03 01:16:16;;;;;;;22.00;14.67;;;;;;;11.91;97.39;94458.41;5033540;28;20949;-81
2021/04/03 01:18:57;;;;;;;22.63;15.40;;;;;;;11.93;96.86;94465.16;5033759;28;20556;-81
2021/04/03 01:21:33;;;;;;;20.30;15.40;;;;;;;12.00;96.41;94462.75;5014847;28;20797;-81
2021/04/03 01:24:26;;;;;;;16.00;12.50;;;;;;;12.07;96.53;94459.38;5033029;28;20463;-81
2021/04/03 01:27:13;;;;;;;20.10;15.50;;;;;;;12.10;95.95;94453.00;5033345;28;20450;-81
2021/04/03 01:30:03;;;;;;;23.77;15.07;;;;;;;12.17;95.27;94456.69;5033397;28;20532;-81
2021/04/03 01:32:35;;;;;;;22.33;14.70;;;;;;;12.16;94.93;94462.94;5033181;28;20445;-81
2021/04/03 01:35:04;;;;;;;22.47;15.80;;;;;;;11.89;96.06;94455.09;5033919;28;20449;-80
2021/04/03 01:37:32;;;;;;;26.03;17.33;;;;;;;12.01;95.79;94453.91;4998431;28;20454;-81
2021/04/03 01:40:01;;;;;;;23.77;16.43;;;;;;;12.00;94.95;94449.63;5033065;28;20842;-81
2021/04/03 01:42:34;;;;;;;23.60;15.10;;;;;;;12.05;94.99;94444.72;5033329;28;20447;-81
2021/04/03 01:45:05;;;;;;;18.60;14.43;;;;;;;12.09;94.80;94444.28;5033662;28;20461;-81
2021/04/03 01:47:35;;;;;;;19.23;14.20;;;;;;;12.10;94.12;94438.03;5033238;28;20556;-81
2021/04/03 01:50:04;;;;;;;18.43;13.60;;;;;;;12.15;94.05;94440.25;5033516;28;20844;-81
2021/04/03 01:52:33;;;;;;;19.70;13.70;;;;;;;12.17;93.03;94440.91;5033114;28;20445;-81
2021/04/03 01:55:03;;;;;;;21.40;15.33;;;;;;;12.18;93.29;94439.94;5033351;28;20446;-81
2021/04/03 01:57:32;;;;;;;18.90;13.30;;;;;;;12.20;92.20;94437.16;5033307;28;20491;-81
2021/04/03 01:59:59;;;;;;;28.70;14.53;;;;;;;12.21;92.34;94430.91;5032789;28;20449;-81
2021/04/03 02:02:27;;;;;;;22.87;15.00;;;;;;;12.22;90.82;94441.28;4998565;28;20470;-81
2021/04/03 02:04:54;;;;;;;27.13;19.70;;;;;;;12.21;91.55;94434.38;5036870;28;20491;-81
2021/04/03 02:07:23;;;;;;;29.10;18.20;;;;;;;12.21;91.26;94423.84;5036429;28;21463;-81
2021/04/03 02:09:51;;;;;;;23.00;16.40;;;;;;;12.20;90.60;94424.84;5036773;28;20434;-81
2021/04/03 02:12:18;;;;;;;21.90;14.60;;;;;;;12.17;90.54;94427.75;5036430;28;20442;-81
2021/04/03 02:14:48;;;;;;;16.80;13.87;;;;;;;12.17;90.85;94426.94;5036821;28;20496;-81
2021/04/03 02:17:16;;;;;;;16.67;13.17;;;;;;;12.16;90.86;94431.38;5036779;28;20444;-81
2021/04/03 02:19:44;;;;;;;23.00;13.27;;;;;;;12.09;90.03;94415.34;5036655;28;20442;-81
2021/04/03 02:22:10;;;;;;;15.70;11.23;;;;;;;12.04;89.73;94422.03;5001707;28;20434;-81
2021/04/03 02:24:37;;;;;;;14.87;11.50;;;;;;;11.97;88.90;94419.19;5036515;28;20919;-81
2021/04/03 02:27:05;;;;;;;17.97;13.23;;;;;;;11.91;89.44;94414.53;5034042;28;20982;-81
2021/04/03 02:29:32;;;;;;;15.70;12.37;;;;;;;11.86;89.46;94414.16;5036357;28;20446;-80
2021/04/03 02:31:58;;;;;;;17.70;13.20;;;;;;;11.82;89.87;94412.78;5036312;28;20501;-80
2021/04/03 02:34:24;;;;;;;18.93;12.13;;;;;;;11.78;89.93;94414.88;5036336;28;20457;-81
2021/04/03 02:36:51;;;;;;;19.97;12.10;;;;;;;11.77;90.08;94412.38;5001133;28;20446;-81
2021/04/03 02:39:18;;;;;;;17.63;10.73;;;;;;;11.71;89.84;94400.66;5036213;28;20445;-81
2021/04/03 02:41:47;;;;;;;21.83;12.97;;;;;;;11.69;90.13;94407.88;5036450;28;20446;-81
2021/04/03 02:44:19;;;;;;;22.03;15.13;;;;;;;11.69;89.71;94407.06;5035956;28;20454;-81
2021/04/03 02:46:49;;;;;;;16.00;11.77;;;;;;;11.62;90.26;94409.44;5036088;28;20541;-81
2021/04/03 02:49:21;;;;;;;15.83;12.13;;;;;;;11.58;89.92;94405.47;5017359;28;20520;-80
2021/04/03 02:51:50;;;;;;;20.50;12.60;;;;;;;11.56;90.34;94402.13;5035922;28;20444;-81
2021/04/03 02:54:21;;;;;;;17.70;13.63;;;;;;;11.56;90.11;94411.81;5035765;28;20443;-81
2021/04/03 02:56:48;;;;;;;19.80;11.77;;;;;;;11.52;89.85;94407.84;5035644;28;20460;-81
2021/04/03 02:59:19;;;;;;;19.50;12.53;;;;;;;11.51;89.87;94398.31;5035864;28;20441;-81
2021/04/03 03:01:48;;;;;;;14.57;11.80;;;;;;;11.49;90.68;94395.81;5035434;28;20443;-81
2021/04/03 03:04:17;;;;;;;22.67;12.70;;;;;;;11.45;89.55;94390.03;5035061;28;20449;-81
2021/04/03 03:06:45;;;;;;;14.10;11.70;;;;;;;11.43;90.61;94396.41;5034608;28;20532;-81
2021/04/03 03:09:12;;;;;;;13.90;11.67;;;;;;;11.39;90.95;94395.91;5034572;28;20801;-81
2021/04/03 03:11:44;;;;;;;19.40;12.10;;;;;;;11.40;90.68;94392.28;5034596;28;20447;-81
2021/04/03 03:14:12;;;;;;;14.87;11.00;;;;;;;11.38;89.88;94393.41;5034238;28;20549;-81
2021/04/03 03:16:40;;;;;;;14.90;9.30;;;;;;;11.39;90.97;94395.91;5016636;28;20496;-81
2021/04/03 03:19:07;;;;;;;13.53;10.40;;;;;;;11.36;90.29;94385.69;5034808;28;20492;-81
2021/04/03 03:21:35;;;;;;;14.37;9.90;;;;;;;11.39;90.34;94392.44;5000046;28;20445;-81
2021/04/03 03:24:02;;;;;;;14.00;10.30;;;;;;;11.42;89.83;94386.88;5034672;28;20449;-81
2021/04/03 03:26:31;;;;;;;14.33;8.97;;;;;;;11.38;90.49;94380.28;5034718;28;20453;-81
2021/04/03 03:28:59;;;;;;;14.33;11.20;;;;;;;11.38;90.07;94377.66;5016694;28;20497;-81
2021/04/03 03:31:25;;;;;;;14.87;10.53;;;;;;;11.36;90.45;94369.91;5035035;28;20903;-81
2021/04/03 03:33:51;;;;;;;13.57;10.27;;;;;;;11.34;91.23;94369.25;5034742;28;20452;-81
2021/04/03 03:36:18;;;;;;;13.83;10.77;;;;;;;11.29;91.26;94365.41;5035116;28;20499;-81
2021/04/03 03:38:45;;;;;;;23.20;10.73;;;;;;;11.28;90.92;94374.28;5034911;28;20449;-81
2021/04/03 03:41:12;;;;;;;14.60;10.60;;;;;;;11.29;91.27;94374.13;5034868;28;20442;-81
2021/04/03 03:43:39;;;;;;;14.33;11.10;;;;;;;11.29;90.17;94381.16;5016166;28;20848;-81
2021/04/03 03:46:07;;;;;;;17.23;10.23;;;;;;;11.27;90.85;94370.78;5034833;28;20427;-81
2021/04/03 03:48:33;;;;;;;17.00;10.90;;;;;;;11.29;90.58;94379.38;5035100;28;20489;-81
2021/04/03 03:51:00;;;;;;;11.53;9.03;;;;;;;11.23;89.80;94379.09;5034339;28;20453;-81
2021/04/03 03:53:26;;;;;;;16.33;10.70;;;;;;;11.18;89.91;94374.28;5034401;28;20445;-81
2021/04/03 03:55:54;;;;;;;12.43;10.20;;;;;;;11.17;91.04;94373.47;5034480;28;20453;-81
2021/04/03 03:58:20;;;;;;;19.03;11.27;;;;;;;11.22;90.81;94385.34;5034596;28;20449;-81
2021/04/03 04:00:47;;;;;;;15.07;10.77;;;;;;;11.22;91.41;94377.44;5000008;28;20499;-81
2021/04/03 04:03:14;;;;;;;12.93;9.80;;;;;;;11.24;91.49;94376.34;5034639;28;21023;-81
2021/04/03 04:05:40;;;;;;;14.07;10.90;;;;;;;11.29;90.34;94389.06;5034448;28;20450;-81
2021/04/03 04:08:06;;;;;;;19.50;11.60;;;;;;;11.29;90.23;94383.81;5034393;28;20490;-80
2021/04/03 04:10:33;;;;;;;12.97;10.17;;;;;;;11.31;90.33;94389.72;5034365;28;20446;-80
2021/04/03 04:13:01;;;;;;;14.83;11.47;;;;;;;11.27;90.20;94391.78;5034335;28;20905;-81
2021/04/03 04:15:27;;;;;;;16.97;10.57;;;;;;;11.28;90.05;94390.03;5034870;28;20842;-81
2021/04/03 04:17:54;;;;;;;16.63;11.37;;;;;;;11.09;90.01;94406.69;5034593;28;20449;-81
2021/04/03 04:20:21;;;;;;;14.30;11.03;;;;;;;10.56;91.94;94394.16;5034091;28;20949;-81
2021/04/03 04:22:47;;;;;;;20.20;13.50;;;;;;;10.66;92.45;94400.19;5033823;28;20937;-81
2021/04/03 04:25:14;;;;;;;14.57;12.00;;;;;;;10.29;92.93;94394.91;5033592;28;20454;-81
2021/04/03 04:27:40;;;;;;;18.40;12.70;;;;;;;10.19;93.65;94396.69;5034186;28;20493;-81
2021/04/03 04:30:12;;;;;;;16.53;12.73;;;;;;;10.29;92.42;94394.09;5033841;28;20847;-81
2021/04/03 04:32:39;;;;;;;18.67;14.23;;;;;;;10.41;92.05;94406.09;4984671;28;20746;-81
2021/04/03 04:35:07;;;;;;;20.60;14.40;;;;;;;10.57;92.63;94400.25;5033578;28;20946;-81
2021/04/03 04:37:35;;;;;;;19.87;14.90;;;;;;;10.72;92.27;94401.44;4998969;28;20871;-81
2021/04/03 04:40:01;;;;;;;21.77;16.40;;;;;;;10.82;91.24;94397.00;5031618;28;20907;-81
2021/04/03 04:42:28;;;;;;;18.37;13.70;;;;;;;11.01;89.32;94396.09;5033583;28;20435;-81
2021/04/03 04:44:54;;;;;;;21.03;14.50;;;;;;;10.95;89.80;94396.66;5015271;28;20434;-81
2021/04/03 04:47:20;;;;;;;23.30;14.50;;;;;;;10.94;89.95;94398.44;5033358;28;20489;-81
2021/04/03 04:49:46;;;;;;;23.03;15.53;;;;;;;11.01;89.51;94409.22;5033459;28;20962;-81
2021/04/03 04:52:13;;;;;;;22.80;14.67;;;;;;;11.05;90.61;94411.41;5033500;28;20445;-81
2021/04/03 04:54:40;;;;;;;21.60;14.53;;;;;;;11.21;90.51;94407.31;5034031;28;20446;-81
2021/04/03 04:57:07;;;;;;;18.80;15.90;;;;;;;11.45;89.75;94410.22;5033447;28;20457;-81
2021/04/03 04:59:34;;;;;;;15.40;11.70;;;;;;;11.58;88.31;94413.34;4998801;28;20863;-81
2021/04/03 05:02:00;;;;;;;24.10;14.90;;;;;;;11.77;87.07;94413.22;5033706;28;20537;-81
2021/04/03 05:04:26;;;;;;;22.73;16.00;;;;;;;11.95;86.28;94412.44;5033190;28;20443;-81
2021/04/03 05:06:52;;;;;;;20.30;14.10;;;;;;;12.12;85.47;94414.22;5033644;28;20442;-81
2021/04/03 05:09:19;;;;;;;20.80;14.93;;;;;;;12.36;85.22;94409.16;5033560;28;20509;-81
2021/04/03 05:11:46;;;;;;;18.13;14.10;;;;;;;12.56;83.83;94406.34;5033729;28;20837;-81
2021/04/03 05:14:12;;;;;;;18.20;12.40;;;;;;;12.89;83.16;94408.22;5033905;28;20446;-81
2021/04/03 05:16:39;;;;;;;20.90;13.20;;;;;;;13.28;82.01;94407.78;5033507;28;20446;-82
2021/04/03 05:19:05;;;;;;;23.60;14.60;;;;;;;13.52;80.15;94412.31;5033495;28;20441;-81
2021/04/03 05:21:31;;;;;;;23.53;15.93;;;;;;;13.74;78.56;94410.91;5033303;28;20455;-81
2021/04/03 05:23:58;;;;;;;24.73;18.40;;;;;;;13.69;77.34;94410.56;5033789;28;20450;-81
2021/04/03 05:26:24;;;;;;;23.13;16.93;;;;;;;13.30;78.56;94395.28;5014626;28;20560;-81
2021/04/03 05:28:51;;;;;;;18.93;14.30;;;;;;;13.42;79.96;94390.53;5033467;28;21005;-81
2021/04/03 05:31:20;;;;;;;17.70;14.13;;;;;;;13.51;78.85;94392.22;5033135;28;20451;-81
2021/04/03 05:33:47;;;;;;;16.17;13.80;;;;;;;13.34;78.78;94391.34;5032995;28;20454;-81
2021/04/03 05:36:13;;;;;;;20.87;14.30;;;;;;;13.48;79.05;94392.53;5033321;28;20452;-81
2021/04/03 05:38:40;;;;;;;17.17;13.53;;;;;;;13.67;79.28;94394.09;5002744;28;20471;-81
2021/04/03 05:41:06;;;;;;;20.63;14.13;;;;;;;13.91;79.34;94394.97;5037376;28;20447;-81
2021/04/03 05:43:34;;;;;;;17.07;13.83;;;;;;;14.29;77.90;94397.13;5037488;28;20430;-81
2021/04/03 05:46:03;;;;;;;16.63;12.50;;;;;;;14.75;76.29;94396.50;5037061;28;20447;-81
2021/04/03 05:48:30;;;;;;;17.03;12.47;;;;;;;15.06;73.97;94398.41;5036993;28;20482;-81
2021/04/03 05:50:58;;;;;;;16.07;11.60;;;;;;;15.41;72.49;94402.41;5037573;28;20444;-81
2021/04/03 05:53:25;;;;;;;16.70;12.10;;;;;;;15.85;70.88;94400.06;5037350;28;20430;-81
2021/04/03 05:55:52;;;;;;;21.03;13.60;;;;;;;16.25;68.47;94408.78;5036975;28;20450;-81
2021/04/03 05:58:19;;;;;;;17.00;12.77;;;;;;;16.50;66.93;94397.00;5036916;28;20476;-81
2021/04/03 06:00:45;;;;;;;17.27;13.43;;;;;;;16.64;65.97;94400.69;5036695;28;20445;-81
2021/04/03 06:03:14;;;;;;;22.63;14.80;;;;;;;16.61;66.32;94401.88;5037082;28;20471;-81
2021/04/03 06:05:42;;;;;;;20.90;14.20;;;;;;;16.81;66.84;94414.66;5018451;28;20457;-81
2021/04/03 06:08:08;;;;;;;18.33;12.93;;;;;;;17.00;65.97;94411.47;5036969;28;20494;-81
2021/04/03 06:10:34;;;;;;;20.63;13.80;;;;;;;17.19;63.79;94407.47;5037003;28;20459;-81
2021/04/03 06:13:01;;;;;;;20.07;13.70;;;;;;;16.89;63.70;94402.13;5036432;28;20457;-81
2021/04/03 06:15:37;;;;;;;16.43;12.63;;;;;;;16.70;64.38;94407.94;5036765;28;20854;-81
2021/04/03 06:18:09;;;;;;;16.90;12.13;;;;;;;16.54;64.03;94398.28;5036758;28;20808;-81
2021/04/03 06:20:38;;;;;;;15.40;11.20;;;;;;;16.25;65.65;94400.84;5036668;28;20531;-81
2021/04/03 06:23:06;;;;;;;18.80;12.70;;;;;;;16.08;66.66;94400.94;5018141;28;20449;-81
2021/04/03 06:25:52;;;;;;;16.70;12.53;;;;;;;15.85;69.02;94413.31;5036203;28;20443;-81
2021/04/03 06:28:26;;;;;;;18.77;12.50;;;;;;;16.10;69.23;94406.03;5036408;28;20534;-81
2021/04/03 06:30:56;;;;;;;20.00;13.83;;;;;;;16.34;67.41;94405.06;5036703;28;20454;-81
2021/04/03 06:33:23;;;;;;;24.63;15.10;;;;;;;16.57;68.43;94403.22;5036468;28;20911;-81
2021/04/03 06:38:43;;;;;;;23.43;15.13;;;;;;;17.33;65.03;94396.84;5111787;27;20515;-82
2021/04/03 06:41:21;;;;;;;24.40;17.00;;;;;;;17.64;64.80;94390.53;5111114;28;20448;-83
2021/04/03 06:44:04;;;;;;;20.63;14.45;;;;;;;17.59;62.72;94400.88;5111112;28;20478;-82
2021/04/03 06:46:30;;;;;;;17.97;14.47;;;;;;;17.45;63.25;94393.75;5111189;28;20911;-82
2021/04/03 06:48:57;;;;;;;17.00;13.43;;;;;;;17.09;64.38;94388.38;5110915;28;20448;-83
2021/04/03 06:51:25;;;;;;;21.67;14.57;;;;;;;16.99;65.69;94391.25;5111459;28;20428;-82
2021/04/03 06:53:55;;;;;;;17.30;12.73;;;;;;;17.07;66.50;94393.84;5110911;28;20471;-82
2021/04/03 06:56:23;;;;;;;15.63;11.60;;;;;;;17.18;64.44;94390.75;5110807;28;20432;-82
2021/04/03 06:58:54;;;;;;;14.23;10.40;;;;;;;17.29;63.79;94384.16;5111030;28;20455;-82
2021/04/03 07:01:24;;;;;;;18.70;11.60;;;;;;;17.44;64.01;94381.50;5111362;28;20441;-82
2021/04/03 07:03:56;;;;;;;13.63;10.37;;;;;;;17.60;64.27;94381.28;5110999;28;20917;-80
2021/04/03 07:06:22;;;;;;;19.00;11.27;;;;;;;17.72;62.98;94379.84;5110957;28;20450;-81
2021/04/03 07:08:49;;;;;;;15.30;11.70;;;;;;;17.87;62.55;94369.19;5110847;28;20951;-81
2021/04/03 07:11:17;;;;;;;13.27;10.50;;;;;;;17.88;62.74;94381.44;5110771;28;20449;-81
2021/04/03 07:13:45;;;;;;;15.40;10.10;;;;;;;17.48;63.28;94377.47;5111188;28;20451;-81
2021/04/03 07:16:12;;;;;;;15.40;10.97;;;;;;;17.68;61.84;94375.94;5110847;28;20446;-82
2021/04/03 07:18:39;;;;;;;16.90;9.90;;;;;;;17.91;63.19;94370.44;5110889;28;21000;-82
2021/04/03 07:21:07;;;;;;;13.30;10.20;;;;;;;17.98;63.16;94360.75;5110761;28;20935;-82
2021/04/03 07:23:38;;;;;;;23.10;11.50;;;;;;;18.14;63.90;94365.78;5091959;28;20503;-80
2021/04/03 07:26:05;;;;;;;11.70;9.50;;;;;;;17.67;63.25;94363.66;5110858;28;20483;-81
2021/04/03 07:28:39;;;;;;;17.80;11.20;;;;;;;17.71;63.22;94369.41;5110914;28;20493;-81
2021/04/03 07:31:06;;;;;;;14.00;10.37;;;;;;;17.43;62.98;94371.91;5110844;28;20450;-81
2021/04/03 07:33:33;;;;;;;13.13;11.63;;;;;;;17.18;64.46;94363.41;5110988;28;20449;-81
2021/04/03 07:36:05;;;;;;;15.53;11.57;;;;;;;17.05;66.84;94361.38;5110847;28;20451;-79
2021/04/03 07:38:36;;;;;;;16.97;11.83;;;;;;;16.67;67.29;94353.47;5110668;28;20488;-81
2021/04/03 07:41:04;;;;;;;16.83;10.87;;;;;;;16.70;68.81;94362.91;5110666;28;20466;-81
2021/04/03 07:43:40;;;;;;;13.53;11.17;;;;;;;16.79;67.07;94363.66;5110184;28;20465;-81
2021/04/03 07:46:09;;;;;;;15.53;11.33;;;;;;;16.87;66.64;94361.75;5074845;28;20445;-80
2021/04/03 07:48:50;;;;;;;19.60;12.47;;;;;;;16.99;68.29;94354.97;5105000;28;20445;-81
2021/04/03 07:51:32;;;;;;;13.63;11.00;;;;;;;16.93;67.28;94361.00;5096868;28;20445;-81
2021/04/03 07:54:00;;;;;;;15.43;11.23;;;;;;;17.04;66.83;94357.06;5096439;28;20460;-81
2021/04/03 07:56:28;;;;;;;12.20;10.47;;;;;;;17.06;67.40;94349.78;5096501;28;20819;-82
2021/04/03 07:58:57;;;;;;;16.47;10.93;;;;;;;17.13;67.07;94356.00;5096684;28;20443;-82
2021/04/03 08:01:25;;;;;;;14.40;12.10;;;;;;;16.93;67.31;94354.88;5096659;28;20454;-82
2021/04/03 08:03:56;;;;;;;17.23;11.37;;;;;;;16.51;67.52;94345.69;5096905;28;20487;-81
2021/04/03 08:06:30;;;;;;;12.67;10.53;;;;;;;16.81;68.96;94349.22;5077298;28;20432;-82
2021/04/03 08:08:56;;;;;;;16.27;11.80;;;;;;;16.75;67.34;94347.28;5096842;28;20909;-82
2021/04/03 08:11:23;;;;;;;14.50;10.90;;;;;;;16.67;68.27;94342.06;5096646;28;20439;-81
2021/04/03 08:13:51;;;;;;;12.70;11.17;;;;;;;16.68;69.23;94349.00;5096084;28;20907;-82
2021/04/03 08:16:20;;;;;;;16.90;11.07;;;;;;;16.02;69.62;94343.41;5096419;28;20425;-81
2021/04/03 08:18:48;;;;;;;16.97;11.33;;;;;;;15.94;71.18;94351.41;5096545;28;20499;-81
2021/04/03 08:21:15;;;;;;;15.60;11.50;;;;;;;15.71;71.64;94347.94;5096341;28;20466;-82
2021/04/03 08:23:44;;;;;;;14.70;11.27;;;;;;;15.43;72.62;94339.63;5096185;28;20455;-82
2021/04/03 08:26:11;;;;;;;20.40;12.10;;;;;;;15.53;73.25;94349.97;5096142;28;20995;-81
2021/04/03 08:28:38;;;;;;;16.43;10.40;;;;;;;15.66;71.99;94344.97;5095535;28;20946;-80
2021/04/03 08:31:15;;;;;;;17.80;11.40;;;;;;;15.58;72.92;94344.97;5095967;28;20442;-81
2021/04/03 08:33:43;;;;;;;20.20;12.47;;;;;;;15.51;73.36;94355.44;5095717;28;20459;-81
2021/04/03 08:36:13;;;;;;;15.60;10.33;;;;;;;15.67;72.91;94347.44;5096244;28;20447;-80
2021/04/03 08:38:43;;;;;;;16.37;10.90;;;;;;;15.36;73.43;94323.63;5095789;28;20478;-82
2021/04/03 08:41:10;;;;;;;13.37;11.97;;;;;;;15.28;74.10;94315.72;5095780;28;20432;-81
2021/04/03 08:43:36;;;;;;;11.37;9.83;;;;;;;15.41;74.83;94323.94;5095333;28;20446;-81
2021/04/03 08:46:08;;;;;;;13.67;10.33;;;;;;;15.59;73.93;94328.97;5095892;28;20493;-81
2021/04/03 08:48:36;;;;;;;13.60;11.70;;;;;;;15.70;73.23;94315.34;5095812;28;20934;-80
2021/04/03 08:51:04;;;;;;;14.77;11.17;;;;;;;15.92;71.57;94318.19;5095297;28;20931;-81
2021/04/03 08:53:42;;;;;;;15.03;10.40;;;;;;;15.87;72.19;94316.06;5095382;28;20452;-81
2021/04/03 08:56:09;;;;;;;13.50;10.33;;;;;;;16.15;71.59;94323.47;5059566;28;20943;-81
2021/04/03 08:58:36;;;;;;;14.60;11.30;;;;;;;16.25;71.23;94302.88;5095346;28;20489;-81
2021/04/03 09:01:04;;;;;;;18.00;12.10;;;;;;;16.56;70.97;94302.75;5094522;28;20443;-81
2021/04/03 09:03:33;;;;;;;12.87;10.13;;;;;;;16.96;69.73;94297.03;5095034;28;20456;-81
2021/04/03 09:06:00;;;;;;;15.57;11.03;;;;;;;17.33;68.89;94297.91;5059634;28;20442;-81
2021/04/03 09:08:27;;;;;;;26.87;13.50;;;;;;;17.34;67.07;94291.59;5095386;28;20779;-82
2021/04/03 09:10:55;;;;;;;15.70;11.00;;;;;;;17.42;67.91;94280.06;5094854;28;20446;-82
2021/04/03 09:13:21;;;;;;;12.70;9.70;;;;;;;17.71;66.42;94280.00;5095366;28;20450;-82
2021/04/03 09:15:48;;;;;;;18.80;10.90;;;;;;;18.05;66.57;94275.84;5094836;28;20538;-82
2021/04/03 09:18:15;;;;;;;14.30;11.10;;;;;;;18.26;64.88;94281.16;5094907;28;20575;-81
2021/04/03 09:20:49;;;;;;;17.43;11.80;;;;;;;18.49;64.42;94289.69;5094663;28;20510;-80
2021/04/03 09:23:15;;;;;;;14.73;10.20;;;;;;;18.56;62.23;94285.25;5094506;28;20456;-81
2021/04/03 09:25:44;;;;;;;14.83;9.90;;;;;;;18.63;62.00;94277.34;5095079;28;20434;-82
2021/04/03 09:28:12;;;;;;;11.83;9.80;;;;;;;18.11;64.12;94269.75;5094956;28;20447;-82
2021/04/03 09:30:40;;;;;;;12.50;10.37;;;;;;;18.52;64.64;94268.06;5094267;28;20457;-81
2021/04/03 09:33:28;;;;;;;13.83;10.37;;;;;;;18.50;63.16;94272.75;5094407;28;20748;-82
2021/04/03 09:36:11;;;;;;;15.67;11.50;;;;;;;18.60;64.53;94260.94;5052104;28;20462;-81
2021/04/03 09:38:38;;;;;;;20.70;11.53;;;;;;;18.41;64.25;94259.78;5051606;28;20494;-81
2021/04/03 09:41:19;;;;;;;16.93;13.10;;;;;;;18.66;64.06;94257.53;5052152;28;20492;-81
2021/04/03 09:43:46;;;;;;;15.33;10.57;;;;;;;18.51;63.62;94254.97;5051943;28;20422;-81
2021/04/03 09:46:12;;;;;;;13.90;11.70;;;;;;;18.36;64.21;94255.06;5051685;28;20450;-80
2021/04/03 09:48:39;;;;;;;15.47;11.60;;;;;;;18.44;65.07;94238.97;5051878;28;20457;-81
2021/04/03 09:51:06;;;;;;;15.90;11.37;;;;;;;18.47;65.49;94230.59;5051461;28;20450;-80
2021/04/03 09:53:32;;;;;;;15.20;11.87;;;;;;;18.39;65.57;94220.13;5050045;28;20447;-81
2021/04/03 09:55:59;;;;;;;14.63;11.70;;;;;;;18.64;64.80;94225.03;5049455;28;20432;-81
2021/04/03 09:58:26;;;;;;;18.03;11.97;;;;;;;18.69;64.05;94219.94;5049868;28;20734;-81
2021/04/03 10:00:53;;;;;;;14.10;11.30;;;;;;;18.43;63.76;94228.53;5050045;28;20442;-81
2021/04/03 10:03:19;;;;;;;27.93;11.03;;;;;;;18.18;63.42;94223.66;5050208;28;20964;-81
2021/04/03 10:05:45;;;;;;;14.57;10.27;;;;;;;18.08;64.30;94209.91;5050134;28;20438;-82
2021/04/03 10:08:12;;;;;;;13.13;10.13;;;;;;;18.26;65.30;94212.91;5000550;28;20449;-81
2021/04/03 10:10:39;;;;;;;13.40;10.00;;;;;;;18.37;64.14;94211.53;5050050;28;20458;-82
2021/04/03 10:13:07;;;;;;;10.90;9.67;;;;;;;18.36;62.67;94204.59;5035464;28;20444;-82
2021/04/03 10:15:34;;;;;;;14.63;10.43;;;;;;;18.41;61.38;94199.50;5092723;28;20455;-82
2021/04/03 10:18:01;;;;;;;11.00;9.27;;;;;;;18.52;60.77;94201.63;5092313;28;20853;-82
2021/04/03 10:20:27;;;;;;;19.50;11.00;;;;;;;18.53;64.07;94190.00;5092624;28;20444;-82
2021/04/03 10:22:54;;;;;;;17.17;12.97;;;;;;;18.50;64.38;94193.03;5092527;28;20440;-81
2021/04/03 10:25:21;;;;;;;12.60;11.17;;;;;;;18.66;63.38;94186.59;5092245;28;20889;-81
2021/04/03 10:27:47;;;;;;;14.57;10.00;;;;;;;18.71;63.41;94180.69;5092323;28;20481;-81
2021/04/03 10:30:14;;;;;;;10.13;9.07;;;;;;;18.63;60.80;94176.38;5092222;28;20453;-82
2021/04/03 10:32:42;;;;;;;11.00;9.27;;;;;;;18.72;61.23;94177.03;5056577;28;20459;-82
2021/04/03 10:35:09;;;;;;;10.80;9.60;;;;;;;18.80;61.39;94174.22;5093098;28;20457;-81
2021/04/03 10:37:35;;;;;;;12.60;9.30;;;;;;;18.78;60.99;94154.97;5093657;28;20545;-81
2021/04/03 10:40:02;;;;;;;10.60;9.50;;;;;;;18.72;60.13;94153.09;5093369;28;20439;-81
2021/04/03 10:42:28;;;;;;;13.30;9.70;;;;;;;18.90;60.93;94163.22;5093345;28;20454;-81
2021/04/03 10:44:55;;;;;;;10.40;8.70;;;;;;;18.91;59.76;94163.00;5093316;28;20455;-81
2021/04/03 10:47:21;;;;;;;12.40;10.40;;;;;;;18.73;59.42;94152.91;5074937;28;20444;-82
2021/04/03 10:49:49;;;;;;;9.17;8.27;;;;;;;18.83;60.35;94152.56;5093121;28;20452;-81
2021/04/03 10:52:15;;;;;;;12.80;7.97;;;;;;;18.88;58.52;94147.47;5093472;28;20973;-81
2021/04/03 10:54:41;;;;;;;14.03;8.30;;;;;;;18.80;59.93;94155.63;5093462;28;20460;-82
2021/04/03 10:57:08;;;;;;;11.90;8.67;;;;;;;18.75;59.81;94144.72;5093309;28;20486;-81
2021/04/03 10:59:34;;;;;;;10.50;9.40;;;;;;;18.69;59.65;94140.22;5093633;28;20435;-81
2021/04/03 11:02:01;;;;;;;20.47;10.60;;;;;;;18.71;60.06;94152.28;5093615;28;20455;-81
2021/04/03 11:04:27;;;;;;;13.93;11.27;;;;;;;18.69;60.62;94156.16;5093014;28;20440;-81
2021/04/03 11:06:54;;;;;;;13.67;10.73;;;;;;;18.58;61.63;94170.81;5093398;28;20906;-81
2021/04/03 11:09:21;;;;;;;18.67;13.70;;;;;;;18.36;62.58;94190.50;5093418;28;20432;-82
2021/04/03 11:11:47;;;;;;;19.13;15.17;;;;;;;17.89;67.22;94215.84;5074287;28;20439;-81
2021/04/03 11:14:13;;;;;;;24.37;18.33;;;;;;;17.38;70.41;94221.28;5093841;28;20428;-81
2021/04/03 11:16:40;;;;;;;28.17;19.60;;;;;;;17.01;70.86;94209.00;5092772;28;20434;-81
2021/04/03 11:19:06;;;;;;;19.07;15.87;;;;;;;16.80;73.65;94214.28;5093153;28;20471;-81
2021/04/03 11:21:32;;;;;;;18.43;15.00;;;;;;;16.62;76.58;94210.13;5092830;28;20436;-82
2021/04/03 11:23:59;;;;;;;25.90;17.03;;;;;;;16.40;80.92;94205.75;5094137;28;20447;-81
2021/04/03 11:26:26;;;;;;;22.73;16.23;;;;;;;16.07;81.30;94221.94;5077738;28;20437;-80